Time;durP1;ratioP1;P1;durP2;ratioP2;P2;SDS_P1;SDS_P2;PMS_P1;PMS_P2;Temp;Humidity;BMP_temperature;BMP_pressure;BME280_temperature;BME280_humidity;BME280_pressure;Samples;Min_cycle;Max_cycle;Signal;HPM_P1;HPM_P2
2021/11/13 00:01:30;;;;;;;31.77;7.18;;;;;;;9.00;100.00;100604.22;5093777;28;20039;-73
2021/11/13 00:03:55;;;;;;;28.13;7.03;;;;;;;9.01;100.00;100605.88;5077521;28;20028;-73
2021/11/13 00:06:21;;;;;;;26.10;6.25;;;;;;;8.99;100.00;100607.25;5086173;28;20039;-72
2021/11/13 00:08:47;;;;;;;20.65;6.18;;;;;;;9.00;100.00;100604.22;5070940;28;20031;-73
2021/11/13 00:11:12;;;;;;;30.77;6.00;;;;;;;9.01;100.00;100594.78;5096108;28;20023;-73
2021/11/13 00:13:39;;;;;;;34.10;6.28;;;;;;;9.00;100.00;100595.06;5087627;28;20032;-73
2021/11/13 00:16:05;;;;;;;35.03;7.22;;;;;;;9.02;100.00;100590.06;5088213;28;20372;-73
2021/11/13 00:18:35;;;;;;;28.77;6.35;;;;;;;9.00;100.00;100593.13;5094482;28;20032;-73
2021/11/13 00:21:03;;;;;;;31.23;6.50;;;;;;;9.00;100.00;100586.75;5091140;28;20447;-73
2021/11/13 00:23:29;;;;;;;33.83;6.47;;;;;;;8.99;100.00;100594.22;5094303;28;20024;-73
2021/11/13 00:25:54;;;;;;;23.63;6.15;;;;;;;8.98;100.00;100592.59;5077590;28;20031;-72
2021/11/13 00:28:20;;;;;;;24.33;6.43;;;;;;;8.99;100.00;100596.19;5091406;28;20032;-72
2021/11/13 00:30:45;;;;;;;24.25;6.07;;;;;;;8.97;100.00;100590.94;5094269;28;20037;-72
2021/11/13 00:33:11;;;;;;;28.23;6.35;;;;;;;8.96;100.00;100589.25;5092017;28;20040;-72
2021/11/13 00:35:37;;;;;;;34.30;5.88;;;;;;;8.95;100.00;100584.84;5092676;28;20036;-72
2021/11/13 00:38:03;;;;;;;30.08;6.53;;;;;;;8.95;100.00;100580.13;5084096;28;20604;-73
2021/11/13 00:40:28;;;;;;;28.27;6.65;;;;;;;8.94;100.00;100577.63;5084265;28;20032;-72
2021/11/13 00:42:54;;;;;;;24.67;5.60;;;;;;;8.91;100.00;100573.50;5089877;28;20053;-72
2021/11/13 00:45:19;;;;;;;25.15;6.13;;;;;;;8.89;100.00;100574.91;5091838;28;20036;-73
2021/11/13 00:47:45;;;;;;;22.85;5.28;;;;;;;8.89;100.00;100570.19;5092062;28;20028;-73
2021/11/13 00:50:12;;;;;;;27.25;5.57;;;;;;;8.88;100.00;100573.22;5077029;28;20094;-72
2021/11/13 00:52:38;;;;;;;22.92;5.18;;;;;;;8.86;100.00;100581.81;5092493;28;20533;-72
2021/11/13 00:55:04;;;;;;;24.40;4.93;;;;;;;8.85;100.00;100579.31;5093134;28;20048;-73
2021/11/13 00:57:30;;;;;;;19.90;4.93;;;;;;;8.85;100.00;100579.31;5094468;28;20130;-73
2021/11/13 00:59:55;;;;;;;22.98;5.50;;;;;;;8.84;100.00;100572.13;5093062;28;20118;-73
2021/11/13 01:02:21;;;;;;;25.13;5.38;;;;;;;8.83;100.00;100571.31;5092356;28;20036;-72
2021/11/13 01:04:46;;;;;;;21.38;5.65;;;;;;;8.82;100.00;100569.63;5092669;28;20039;-73
2021/11/13 01:07:12;;;;;;;21.20;4.90;;;;;;;8.81;100.00;100573.53;5095285;28;20028;-73
2021/11/13 01:09:38;;;;;;;21.90;5.70;;;;;;;8.81;100.00;100575.47;5093425;28;20024;-72
2021/11/13 01:12:04;;;;;;;24.05;5.28;;;;;;;8.81;100.00;100575.47;5094767;28;20039;-73
2021/11/13 01:14:30;;;;;;;23.70;4.97;;;;;;;8.80;100.00;100571.00;5093014;28;20395;-72
2021/11/13 01:16:55;;;;;;;22.33;5.15;;;;;;;8.79;100.00;100580.44;5095418;28;20040;-73
2021/11/13 01:19:21;;;;;;;21.70;5.20;;;;;;;8.75;100.00;100577.41;5097595;28;20040;-72
2021/11/13 01:21:46;;;;;;;21.63;6.25;;;;;;;8.75;100.00;100576.56;5095194;28;20055;-72
2021/11/13 01:24:12;;;;;;;27.73;6.05;;;;;;;8.71;100.00;100579.91;5098326;28;20027;-72
2021/11/13 01:26:38;;;;;;;27.98;5.32;;;;;;;8.70;100.00;100582.97;5084524;28;20571;-72
2021/11/13 01:29:03;;;;;;;18.00;4.93;;;;;;;8.67;100.00;100567.72;5091672;28;20037;-73
2021/11/13 01:31:29;;;;;;;25.27;5.60;;;;;;;8.64;100.00;100556.41;5090907;28;20027;-73
2021/11/13 01:33:56;;;;;;;16.10;4.60;;;;;;;8.58;100.00;100561.13;5097761;28;20463;-73
2021/11/13 01:36:22;;;;;;;22.63;5.90;;;;;;;8.56;100.00;100566.09;5095535;28;20035;-73
2021/11/13 01:38:48;;;;;;;20.13;4.72;;;;;;;8.53;100.00;100569.44;5098521;28;20381;-73
2021/11/13 01:41:13;;;;;;;21.70;4.63;;;;;;;8.48;100.00;100569.44;5082698;28;20483;-73
2021/11/13 01:43:39;;;;;;;21.00;5.00;;;;;;;8.43;100.00;100567.47;5095919;28;20027;-73
2021/11/13 01:46:05;;;;;;;24.10;5.28;;;;;;;8.42;100.00;100563.06;5095765;28;20414;-73
2021/11/13 01:48:31;;;;;;;23.42;4.95;;;;;;;8.37;100.00;100563.03;5095658;28;20028;-73
2021/11/13 01:50:57;;;;;;;19.92;5.25;;;;;;;8.36;100.00;100566.06;5095898;28;20040;-73
2021/11/13 01:53:23;;;;;;;24.77;5.30;;;;;;;8.31;100.00;100572.44;5098720;28;20077;-73
2021/11/13 01:55:49;;;;;;;22.90;5.60;;;;;;;8.27;100.00;100571.34;5095577;28;20043;-73
2021/11/13 01:58:14;;;;;;;22.60;5.00;;;;;;;8.25;100.00;100576.34;5096362;28;20537;-73
2021/11/13 02:00:56;;;;;;;17.95;4.53;;;;;;;8.19;100.00;100575.50;5084619;28;20476;-73
2021/11/13 02:03:23;;;;;;;20.65;5.13;;;;;;;8.17;100.00;100576.88;5096519;28;20051;-73
2021/11/13 02:05:48;;;;;;;21.17;5.28;;;;;;;8.12;100.00;100582.41;5095075;28;20077;-73
2021/11/13 02:08:14;;;;;;;16.70;4.38;;;;;;;8.09;100.00;100594.84;5096264;28;20531;-73
2021/11/13 02:10:40;;;;;;;22.23;4.30;;;;;;;8.08;100.00;100584.91;5095332;28;20028;-73
2021/11/13 02:13:05;;;;;;;18.13;4.35;;;;;;;8.04;100.00;100578.25;5094891;28;20133;-73
2021/11/13 02:15:31;;;;;;;25.58;4.63;;;;;;;8.02;100.00;100578.53;5096624;28;20123;-72
2021/11/13 02:17:57;;;;;;;23.90;5.05;;;;;;;8.00;100.00;100596.53;5094396;28;20408;-72
2021/11/13 02:20:31;;;;;;;22.63;5.03;;;;;;;7.98;100.00;100599.53;5096213;28;20036;-73
2021/11/13 02:22:59;;;;;;;14.18;4.40;;;;;;;7.97;100.00;100600.66;5085610;28;20032;-73
2021/11/13 02:25:27;;;;;;;25.70;4.72;;;;;;;7.96;100.00;100607.28;5095770;28;20072;-72
2021/11/13 02:27:53;;;;;;;20.73;4.93;;;;;;;7.95;100.00;100602.84;5093741;28;20020;-72
2021/11/13 02:30:19;;;;;;;29.40;6.07;;;;;;;7.97;100.00;100608.13;5096436;28;20020;-73
2021/11/13 02:32:44;;;;;;;21.60;4.57;;;;;;;7.97;100.00;100603.44;5094571;28;20028;-73
2021/11/13 02:35:11;;;;;;;18.13;4.07;;;;;;;7.96;100.00;100606.44;5095875;28;20639;-73
2021/11/13 02:37:37;;;;;;;23.92;4.68;;;;;;;7.96;100.00;100614.75;5096938;28;20040;-72
2021/11/13 02:40:04;;;;;;;25.48;4.60;;;;;;;7.96;100.00;100606.44;5095084;28;20085;-72
2021/11/13 02:42:29;;;;;;;19.70;4.93;;;;;;;7.96;100.00;100595.38;5087248;28;20112;-72
2021/11/13 02:44:55;;;;;;;20.70;4.72;;;;;;;7.97;100.00;100597.91;5078934;28;20036;-73
2021/11/13 02:47:20;;;;;;;19.70;4.22;;;;;;;7.96;100.00;100598.16;5076233;28;20028;-73
2021/11/13 02:49:46;;;;;;;18.73;4.45;;;;;;;7.91;100.00;100600.91;5096288;28;20047;-72
2021/11/13 02:52:12;;;;;;;17.42;4.25;;;;;;;7.92;100.00;100595.13;5093367;28;20043;-72
2021/11/13 02:54:44;;;;;;;20.92;4.38;;;;;;;7.90;100.00;100591.78;5094060;28;20024;-72
2021/11/13 02:57:10;;;;;;;21.20;4.68;;;;;;;7.89;100.00;100589.31;5096766;28;20388;-73
2021/11/13 02:59:43;;;;;;;25.00;4.43;;;;;;;7.87;100.00;100586.81;5092861;28;20085;-73
2021/11/13 03:02:09;;;;;;;24.27;4.80;;;;;;;7.83;100.00;100583.78;5092895;28;20043;-73
2021/11/13 03:04:34;;;;;;;16.73;3.90;;;;;;;7.82;100.00;100581.25;5093575;28;20028;-72
2021/11/13 03:07:00;;;;;;;22.70;4.68;;;;;;;7.82;100.00;100584.84;5093522;28;20028;-73
2021/11/13 03:09:25;;;;;;;20.83;3.95;;;;;;;7.82;100.00;100584.84;5096604;28;20032;-73
2021/11/13 03:11:51;;;;;;;21.90;4.63;;;;;;;7.80;100.00;100584.31;5095826;28;20388;-73
2021/11/13 03:14:16;;;;;;;25.50;5.10;;;;;;;7.81;100.00;100582.38;5092489;28;20036;-73
2021/11/13 03:16:42;;;;;;;20.73;4.60;;;;;;;7.78;100.00;100578.22;5094413;28;20045;-72
2021/11/13 03:19:07;;;;;;;26.33;5.35;;;;;;;7.77;100.00;100575.72;5096665;28;20043;-73
2021/11/13 03:21:32;;;;;;;21.45;4.82;;;;;;;7.78;100.00;100578.22;5093379;28;20052;-72
2021/11/13 03:23:58;;;;;;;24.63;5.15;;;;;;;7.76;100.00;100585.13;5096786;28;20130;-73
2021/11/13 03:26:24;;;;;;;21.17;4.13;;;;;;;7.74;100.00;100582.63;5062651;28;20054;-73
2021/11/13 03:28:51;;;;;;;23.13;4.88;;;;;;;7.71;100.00;100583.19;5093214;28;20085;-73
2021/11/13 03:31:17;;;;;;;25.98;4.82;;;;;;;7.71;100.00;100585.94;5092412;28;20419;-73
2021/11/13 03:33:42;;;;;;;25.65;4.88;;;;;;;7.70;100.00;100592.59;5086870;28;20033;-73
2021/11/13 03:36:08;;;;;;;16.88;4.70;;;;;;;7.69;100.00;100590.06;5090728;28;20071;-73
2021/11/13 03:38:35;;;;;;;25.30;5.38;;;;;;;7.68;100.00;100600.31;5095747;28;20098;-73
2021/11/13 03:41:00;;;;;;;24.02;4.72;;;;;;;7.65;100.00;100600.84;5093544;28;20028;-73
2021/11/13 03:43:26;;;;;;;20.60;4.63;;;;;;;7.67;100.00;100595.91;5076613;28;20031;-73
2021/11/13 03:45:51;;;;;;;29.95;5.57;;;;;;;7.66;100.00;100594.25;5096340;28;20028;-73
2021/11/13 03:48:17;;;;;;;23.58;4.95;;;;;;;7.67;100.00;100598.66;5075584;28;20043;-72
2021/11/13 03:50:42;;;;;;;23.67;5.07;;;;;;;7.68;100.00;100600.31;5095772;28;20027;-73
2021/11/13 03:53:08;;;;;;;20.85;4.40;;;;;;;7.69;100.00;100598.38;5093822;28;20391;-73
2021/11/13 03:55:34;;;;;;;21.83;5.20;;;;;;;7.71;100.00;100596.16;5092344;28;20089;-73
2021/11/13 03:57:59;;;;;;;19.05;4.32;;;;;;;7.71;100.00;100608.06;5085986;28;20031;-72
2021/11/13 04:00:25;;;;;;;25.75;5.05;;;;;;;7.71;100.00;100602.53;5094539;28;20479;-73
2021/11/13 04:02:51;;;;;;;23.85;4.40;;;;;;;7.75;100.00;100608.38;5093780;28;20040;-73
2021/11/13 04:05:17;;;;;;;31.10;5.72;;;;;;;7.77;100.00;100606.13;5093389;28;20441;-73
2021/11/13 04:07:42;;;;;;;23.23;4.55;;;;;;;7.78;100.00;100610.59;5095184;28;20472;-72
2021/11/13 04:10:09;;;;;;;23.85;4.50;;;;;;;7.80;100.00;100603.69;5086840;28;20065;-73
2021/11/13 04:12:34;;;;;;;21.95;4.75;;;;;;;7.82;100.00;100598.69;5072228;28;20024;-73
2021/11/13 04:15:00;;;;;;;22.52;5.68;;;;;;;7.83;100.00;100603.13;5095045;28;20028;-73
2021/11/13 04:17:26;;;;;;;19.70;4.90;;;;;;;7.86;100.00;100612.81;5091463;28;20050;-73
2021/11/13 04:19:51;;;;;;;25.58;5.28;;;;;;;7.87;100.00;100608.09;5094155;28;20032;-72
2021/11/13 04:22:17;;;;;;;18.67;4.35;;;;;;;7.87;100.00;100608.09;5082078;28;20037;-73
2021/11/13 04:24:42;;;;;;;24.40;4.50;;;;;;;7.88;100.00;100601.47;5092569;28;20639;-73
2021/11/13 04:27:08;;;;;;;22.67;4.53;;;;;;;7.91;100.00;100598.16;5094543;28;20024;-73
2021/11/13 04:29:33;;;;;;;17.80;4.50;;;;;;;7.91;100.00;100603.69;5093622;28;20031;-73
2021/11/13 04:31:59;;;;;;;26.98;4.47;;;;;;;7.93;100.00;100601.47;5094666;28;20036;-72
2021/11/13 04:34:25;;;;;;;21.85;4.90;;;;;;;7.93;100.00;100601.47;5083241;28;20636;-73
2021/11/13 04:36:53;;;;;;;22.58;4.65;;;;;;;7.95;100.00;100604.81;5091658;28;20703;-72
2021/11/13 04:39:23;;;;;;;20.33;4.82;;;;;;;7.95;100.00;100607.56;5094856;28;20028;-72
2021/11/13 04:41:49;;;;;;;21.00;4.47;;;;;;;7.96;100.00;100600.91;5082541;28;20028;-73
2021/11/13 04:44:15;;;;;;;17.77;4.10;;;;;;;7.97;100.00;100603.44;5093529;28;20514;-72
2021/11/13 04:46:41;;;;;;;22.80;4.38;;;;;;;7.98;100.00;100607.00;5092548;28;20055;-73
2021/11/13 04:49:06;;;;;;;26.17;4.93;;;;;;;7.98;100.00;100613.38;5095023;28;20028;-73
2021/11/13 04:51:32;;;;;;;19.35;4.30;;;;;;;8.00;100.00;100613.13;5097456;28;20035;-72
2021/11/13 04:53:57;;;;;;;19.85;4.05;;;;;;;8.01;100.00;100603.69;5099703;28;20062;-73
2021/11/13 04:56:23;;;;;;;18.90;4.00;;;;;;;7.99;100.00;100612.25;5098359;28;20032;-72
2021/11/13 04:58:48;;;;;;;20.65;3.97;;;;;;;8.00;100.00;100611.16;5095459;28;20028;-73
2021/11/13 05:01:13;;;;;;;17.33;3.90;;;;;;;8.02;100.00;100605.34;5099356;28;20035;-73
2021/11/13 05:03:39;;;;;;;19.23;3.75;;;;;;;8.03;100.00;100615.31;5097919;28;20085;-73
2021/11/13 05:06:04;;;;;;;16.15;3.60;;;;;;;8.03;100.00;100609.78;5097525;28;20512;-73
2021/11/13 05:08:30;;;;;;;12.70;3.53;;;;;;;8.03;100.00;100621.69;5098442;28;20028;-73
2021/11/13 05:10:55;;;;;;;16.05;3.35;;;;;;;8.06;100.00;100617.53;5090877;28;20032;-73
2021/11/13 05:13:21;;;;;;;20.52;3.80;;;;;;;8.08;100.00;100620.88;5094692;28;20032;-73
2021/11/13 05:15:46;;;;;;;18.02;3.72;;;;;;;8.09;100.00;100622.53;5098792;28;20517;-73
2021/11/13 05:18:12;;;;;;;15.68;3.85;;;;;;;8.10;100.00;100618.63;5095168;28;20643;-72
2021/11/13 05:20:38;;;;;;;16.73;3.45;;;;;;;8.10;100.00;100617.81;5098728;28;20100;-73
2021/11/13 05:23:03;;;;;;;15.63;3.83;;;;;;;8.12;100.00;100621.97;5096052;28;20112;-73
2021/11/13 05:25:29;;;;;;;21.20;4.28;;;;;;;8.13;100.00;100620.84;5091185;28;20028;-73
2021/11/13 05:27:54;;;;;;;17.10;4.07;;;;;;;8.16;100.00;100622.25;5090964;28;20523;-73
2021/11/13 05:30:22;;;;;;;16.33;3.55;;;;;;;8.17;100.00;100621.97;5096376;28;20034;-73
2021/11/13 05:32:47;;;;;;;13.70;2.97;;;;;;;8.15;100.00;100621.41;5095710;28;20028;-72
2021/11/13 05:35:13;;;;;;;13.52;3.00;;;;;;;8.18;100.00;100631.09;5097720;28;20028;-73
2021/11/13 05:37:38;;;;;;;10.32;2.92;;;;;;;8.19;100.00;100636.38;5097271;28;20480;-73
2021/11/13 05:40:05;;;;;;;17.42;3.28;;;;;;;8.22;100.00;100644.13;5097221;28;20426;-72
2021/11/13 05:42:31;;;;;;;12.90;2.70;;;;;;;8.23;100.00;100643.00;5087478;28;20024;-73
2021/11/13 05:44:56;;;;;;;10.60;2.60;;;;;;;8.23;100.00;100639.41;5096611;28;20036;-73
2021/11/13 05:47:22;;;;;;;15.63;3.42;;;;;;;8.25;100.00;100642.75;5095432;28;20023;-73
2021/11/13 05:49:48;;;;;;;11.05;2.47;;;;;;;8.25;100.00;100638.03;5096236;28;20480;-72
2021/11/13 05:52:13;;;;;;;11.70;2.72;;;;;;;8.26;100.00;100639.69;5089409;28;20553;-73
2021/11/13 05:54:39;;;;;;;12.57;2.70;;;;;;;8.29;100.00;100647.44;5095399;28;20028;-72
2021/11/13 05:57:05;;;;;;;9.93;2.53;;;;;;;8.31;100.00;100647.16;5097910;28;20407;-72
2021/11/13 05:59:30;;;;;;;8.50;2.20;;;;;;;8.32;100.00;100648.00;5086948;28;20101;-73
2021/11/13 06:01:56;;;;;;;11.05;2.72;;;;;;;8.36;100.00;100646.31;5094271;28;20040;-73
2021/11/13 06:04:22;;;;;;;9.00;2.28;;;;;;;8.37;100.00;100635.00;5086442;28;20036;-72
2021/11/13 06:06:47;;;;;;;12.20;2.53;;;;;;;8.37;100.00;100634.16;5095657;28;20059;-72
2021/11/13 06:09:12;;;;;;;11.40;2.70;;;;;;;8.38;100.00;100653.25;5095435;28;20095;-73
2021/11/13 06:11:38;;;;;;;13.27;2.38;;;;;;;8.40;100.00;100644.72;5098195;28;20035;-73
2021/11/13 06:14:03;;;;;;;10.32;2.30;;;;;;;8.42;100.00;100656.34;5093425;28;20036;-72
2021/11/13 06:16:29;;;;;;;8.52;2.38;;;;;;;8.42;100.00;100653.56;5094944;28;20044;-73
2021/11/13 06:18:55;;;;;;;10.85;2.10;;;;;;;8.44;100.00;100665.19;5098082;28;20043;-73
2021/11/13 06:21:20;;;;;;;9.60;2.50;;;;;;;8.45;100.00;100658.56;5096691;28;20032;-73
2021/11/13 06:23:46;;;;;;;13.00;2.10;;;;;;;8.46;100.00;100672.09;5097012;28;20032;-73
2021/11/13 06:26:12;;;;;;;14.35;2.42;;;;;;;8.49;100.00;100676.25;5085907;28;20387;-73
2021/11/13 06:28:38;;;;;;;8.48;2.13;;;;;;;8.50;100.00;100666.88;5095064;28;20024;-73
2021/11/13 06:31:03;;;;;;;7.80;1.98;;;;;;;8.49;100.00;100667.94;5094413;28;20040;-73
2021/11/13 06:33:29;;;;;;;13.18;2.45;;;;;;;8.52;100.00;100670.16;5098067;28;20032;-73
2021/11/13 06:35:54;;;;;;;10.07;2.30;;;;;;;8.53;100.00;100671.84;5093298;28;20094;-73
2021/11/13 06:38:20;;;;;;;10.35;2.28;;;;;;;8.53;100.00;100676.56;5097345;28;20047;-73
2021/11/13 06:40:46;;;;;;;10.73;2.30;;;;;;;8.54;100.00;100681.78;5095268;28;20032;-73
2021/11/13 06:43:11;;;;;;;5.70;1.67;;;;;;;8.55;100.00;100683.44;5095733;28;20039;-72
2021/11/13 06:45:37;;;;;;;11.13;1.95;;;;;;;8.57;100.00;100677.66;5096023;28;20039;-72
2021/11/13 06:48:03;;;;;;;7.35;1.80;;;;;;;8.57;100.00;100683.19;5095028;28;20028;-72
2021/11/13 06:50:28;;;;;;;6.05;1.70;;;;;;;8.58;100.00;100685.69;5076081;28;20081;-72
2021/11/13 06:52:53;;;;;;;6.03;2.10;;;;;;;8.60;100.00;100679.88;5079255;28;20036;-73
2021/11/13 06:55:19;;;;;;;7.55;2.00;;;;;;;8.59;100.00;100690.09;5094549;28;20032;-73
2021/11/13 06:57:44;;;;;;;6.53;1.55;;;;;;;8.60;100.00;100694.53;5095131;28;20032;-73
2021/11/13 07:00:15;;;;;;;6.55;2.03;;;;;;;8.61;100.00;100696.22;5095533;28;20028;-73
2021/11/13 07:02:41;;;;;;;7.18;1.73;;;;;;;8.62;100.00;100692.31;5091549;28;20403;-72
2021/11/13 07:05:07;;;;;;;8.65;1.90;;;;;;;8.64;100.00;100679.03;5095245;28;20036;-73
2021/11/13 07:07:33;;;;;;;4.25;1.58;;;;;;;8.65;100.00;100690.94;5094207;28;20020;-72
2021/11/13 07:10:00;;;;;;;4.45;1.88;;;;;;;8.65;100.00;100694.53;5092838;28;20035;-72
2021/11/13 07:12:26;;;;;;;5.60;1.50;;;;;;;8.66;100.00;100693.44;5095603;28;20646;-72
2021/11/13 07:14:52;;;;;;;5.13;1.90;;;;;;;8.67;100.00;100710.88;5092462;28;20028;-72
2021/11/13 07:17:17;;;;;;;6.43;1.60;;;;;;;8.68;100.00;100702.28;5094855;28;20365;-72
2021/11/13 07:19:43;;;;;;;7.10;2.03;;;;;;;8.68;100.00;100701.47;5095247;28;20028;-73
2021/11/13 07:22:08;;;;;;;5.15;1.60;;;;;;;8.70;100.00;100700.06;5083275;28;20062;-72
2021/11/13 07:24:34;;;;;;;3.83;1.27;;;;;;;8.71;100.00;100696.19;5093806;28;20038;-73
2021/11/13 07:26:59;;;;;;;4.25;1.50;;;;;;;8.71;100.00;100704.50;5094088;28;20040;-73
2021/11/13 07:29:27;;;;;;;4.90;1.33;;;;;;;8.71;100.00;100707.25;5096830;28;20093;-73
2021/11/13 07:31:53;;;;;;;6.82;1.33;;;;;;;8.74;100.00;100716.97;5076002;28;20059;-72
2021/11/13 07:34:18;;;;;;;4.45;1.38;;;;;;;8.75;100.00;100715.88;5084567;28;21041;-73
2021/11/13 07:36:44;;;;;;;3.60;1.33;;;;;;;8.78;100.00;100720.03;5095004;28;20028;-72
2021/11/13 07:39:09;;;;;;;4.55;1.10;;;;;;;8.79;100.00;100722.50;5094333;28;20476;-73
2021/11/13 07:41:35;;;;;;;4.22;1.50;;;;;;;8.78;100.00;100723.63;5093226;28;20032;-73
2021/11/13 07:44:00;;;;;;;5.80;1.48;;;;;;;8.79;100.00;100730.81;5092405;28;20036;-72
2021/11/13 07:46:26;;;;;;;4.55;1.38;;;;;;;8.81;100.00;100736.09;5092166;28;20027;-73
2021/11/13 07:48:52;;;;;;;5.13;1.40;;;;;;;8.82;100.00;100734.97;5096518;28;20035;-72
2021/11/13 07:51:19;;;;;;;2.20;0.98;;;;;;;8.84;100.00;100730.81;5092021;28;20036;-72
2021/11/13 07:53:44;;;;;;;4.13;1.75;;;;;;;8.86;100.00;100741.59;5094735;28;20157;-72
2021/11/13 07:56:10;;;;;;;7.20;1.40;;;;;;;8.88;100.00;100744.94;5095298;28;20035;-72
2021/11/13 07:58:35;;;;;;;4.75;1.48;;;;;;;8.90;100.00;100737.19;5093196;28;20036;-73
2021/11/13 08:01:01;;;;;;;3.70;1.48;;;;;;;8.92;100.00;100751.59;5091587;28;20142;-73
2021/11/13 08:03:26;;;;;;;3.08;1.10;;;;;;;8.94;100.00;100754.91;5096371;28;20024;-72
2021/11/13 08:05:52;;;;;;;3.63;1.30;;;;;;;8.94;100.00;100757.66;5093323;28;20432;-72
2021/11/13 08:08:17;;;;;;;2.83;1.20;;;;;;;8.98;100.00;100757.97;5095385;28;20512;-73
2021/11/13 08:10:43;;;;;;;6.95;1.40;;;;;;;9.00;100.00;100758.50;5082814;28;20028;-72
2021/11/13 08:13:09;;;;;;;3.13;1.27;;;;;;;9.01;100.00;100761.00;5093256;28;20043;-72
2021/11/13 08:15:35;;;;;;;4.20;1.58;;;;;;;9.04;100.00;100748.53;5095022;28;20053;-72
2021/11/13 08:18:00;;;;;;;4.10;1.90;;;;;;;9.05;100.00;100756.56;5094127;28;20059;-72
2021/11/13 08:20:26;;;;;;;5.85;1.42;;;;;;;9.08;100.00;100758.78;5091133;28;20036;-72
2021/11/13 08:22:51;;;;;;;6.70;2.08;;;;;;;9.13;100.00;100753.22;5085563;28;20073;-73
2021/11/13 08:25:17;;;;;;;7.18;1.63;;;;;;;9.13;100.00;100758.78;5094729;28;20039;-73
2021/11/13 08:27:43;;;;;;;5.40;1.52;;;;;;;9.14;100.00;100752.13;5093741;28;20036;-73
2021/11/13 08:30:09;;;;;;;5.25;1.45;;;;;;;9.16;100.00;100752.69;5095104;28;21743;-73
2021/11/13 08:32:35;;;;;;;4.43;1.23;;;;;;;9.17;100.00;100757.13;5093425;28;20040;-73
2021/11/13 08:35:01;;;;;;;4.35;1.73;;;;;;;9.21;100.00;100756.56;5091335;28;20118;-73
2021/11/13 08:37:27;;;;;;;4.07;1.40;;;;;;;9.22;100.00;100756.28;5094650;28;20028;-73
2021/11/13 08:39:52;;;;;;;3.80;1.35;;;;;;;9.25;100.00;100760.41;5071906;28;20050;-72
2021/11/13 08:42:18;;;;;;;2.78;1.38;;;;;;;9.26;100.00;100762.94;5087271;28;20020;-72
2021/11/13 08:44:44;;;;;;;3.75;1.20;;;;;;;9.28;100.00;100763.47;5083079;28;20032;-72
2021/11/13 08:47:10;;;;;;;6.25;1.35;;;;;;;9.32;100.00;100763.75;5091325;28;20095;-72
2021/11/13 08:49:44;;;;;;;2.38;1.30;;;;;;;9.36;100.00;100767.59;5075931;28;20034;-72
2021/11/13 08:52:10;;;;;;;3.15;1.02;;;;;;;9.39;100.00;100762.34;5049680;28;20157;-72
2021/11/13 08:54:36;;;;;;;3.63;1.20;;;;;;;9.44;100.00;100775.34;5090417;28;20032;-72
2021/11/13 08:57:02;;;;;;;3.13;1.05;;;;;;;9.49;100.00;100780.06;5088734;28;20044;-76
2021/11/13 08:59:27;;;;;;;3.50;1.38;;;;;;;9.53;100.00;100779.25;5088672;28;20476;-73
2021/11/13 09:01:53;;;;;;;3.05;1.38;;;;;;;9.58;100.00;100781.16;5056812;28;20040;-73
2021/11/13 09:04:19;;;;;;;4.45;1.40;;;;;;;9.63;100.00;100775.59;5043609;28;20024;-73
2021/11/13 09:06:44;;;;;;;2.92;1.40;;;;;;;9.69;100.00;100781.97;5054655;28;20036;-73
2021/11/13 09:09:10;;;;;;;2.65;1.80;;;;;;;9.74;100.00;100779.19;5043677;28;20050;-73
2021/11/13 09:11:37;;;;;;;2.38;1.45;;;;;;;9.78;100.00;100774.75;5043277;28;20470;-73
2021/11/13 09:14:04;;;;;;;3.47;1.58;;;;;;;9.84;100.00;100787.47;5090360;28;20488;-74
2021/11/13 09:16:29;;;;;;;6.20;1.92;;;;;;;9.87;100.00;100789.69;5074530;28;20040;-74
2021/11/13 09:18:55;;;;;;;4.72;1.90;;;;;;;9.92;100.00;100783.25;5076606;28;20039;-74
2021/11/13 09:21:21;;;;;;;5.13;1.80;;;;;;;9.96;100.00;100782.44;5042441;28;20066;-73
2021/11/13 09:23:47;;;;;;;5.75;1.95;;;;;;;10.01;100.00;100779.63;5059399;28;20477;-74
2021/11/13 09:26:13;;;;;;;4.80;2.08;;;;;;;10.08;100.00;100782.09;5075747;28;20032;-74
2021/11/13 09:28:38;;;;;;;3.45;2.03;;;;;;;10.14;100.00;100780.13;5041506;28;20035;-73
2021/11/13 09:31:04;;;;;;;5.50;2.20;;;;;;;10.20;100.00;100790.94;5075718;28;20035;-73
2021/11/13 09:33:33;;;;;;;4.38;2.20;;;;;;;10.27;100.00;100783.16;5076529;28;20082;-73
2021/11/13 09:35:59;;;;;;;3.88;2.30;;;;;;;10.36;100.00;100777.81;5071508;28;20479;-73
2021/11/13 09:38:26;;;;;;;2.78;2.10;;;;;;;10.42;100.00;100785.03;5097369;28;20020;-73
2021/11/13 09:40:53;;;;;;;5.68;2.05;;;;;;;10.46;100.00;100769.44;5092580;28;20426;-74
2021/11/13 09:43:19;;;;;;;3.28;1.60;;;;;;;10.56;100.00;100779.69;5079948;28;20024;-73
2021/11/13 09:45:45;;;;;;;4.78;1.80;;;;;;;10.61;100.00;100776.00;5061841;28;20040;-73
2021/11/13 09:48:10;;;;;;;4.45;1.75;;;;;;;10.68;100.00;100774.59;5063835;28;20476;-73
2021/11/13 09:50:37;;;;;;;5.13;1.92;;;;;;;10.73;100.00;100795.94;5063488;28;20028;-73
2021/11/13 09:53:04;;;;;;;4.05;1.98;;;;;;;10.79;100.00;100782.84;5053110;28;20487;-73
2021/11/13 09:55:29;;;;;;;5.93;1.95;;;;;;;10.83;100.00;100784.75;5080461;28;20135;-73
2021/11/13 09:57:56;;;;;;;4.57;2.10;;;;;;;10.90;100.00;100795.56;5061139;28;20032;-73
2021/11/13 10:00:23;;;;;;;4.70;2.20;;;;;;;10.95;100.00;100793.56;5078844;28;20032;-73
2021/11/13 10:02:49;;;;;;;4.40;2.22;;;;;;;11.02;100.00;100797.94;5076329;28;20085;-73
2021/11/13 10:05:14;;;;;;;5.07;1.95;;;;;;;11.06;100.00;100793.47;5075503;28;20052;-73
2021/11/13 10:07:41;;;;;;;6.30;2.10;;;;;;;11.09;100.00;100798.47;5062669;28;20021;-73
2021/11/13 10:10:07;;;;;;;3.75;1.90;;;;;;;11.13;100.00;100789.22;5077690;28;20127;-73
2021/11/13 10:12:40;;;;;;;5.28;1.70;;;;;;;11.17;100.00;100789.47;5078760;28;20387;-73
2021/11/13 10:15:28;;;;;;;7.28;2.10;;;;;;;11.22;100.00;100792.22;5063071;28;20046;-73
2021/11/13 10:18:14;;;;;;;3.85;1.75;;;;;;;11.26;100.00;100793.31;5078457;28;20526;-73
2021/11/13 10:21:02;;;;;;;3.92;1.80;;;;;;;11.31;100.00;100790.47;5045662;28;20020;-73
2021/11/13 10:23:28;;;;;;;4.68;1.42;;;;;;;11.35;100.00;100791.53;5079641;28;20030;-73
2021/11/13 10:26:04;;;;;;;3.97;1.73;;;;;;;11.39;100.00;100792.63;5079632;28;20499;-72
2021/11/13 10:28:30;;;;;;;2.90;1.60;;;;;;;11.45;100.00;100787.84;5074854;28;20036;-74
2021/11/13 10:31:27;;;;;;;5.93;1.35;;;;;;;11.51;100.00;100795.00;5054925;28;20032;-74
2021/11/13 10:33:54;;;;;;;5.10;1.50;;;;;;;11.55;100.00;100795.25;5079700;28;20047;-73
2021/11/13 10:36:25;;;;;;;5.90;1.70;;;;;;;11.59;100.00;100788.81;5059190;28;20035;-71
2021/11/13 10:39:04;;;;;;;5.90;1.60;;;;;;;11.64;100.00;100799.03;5062886;28;20418;-71
2021/11/13 10:41:30;;;;;;;7.90;1.65;;;;;;;11.66;100.00;100796.81;5051643;28;20043;-72
2021/11/13 10:43:55;;;;;;;5.95;1.77;;;;;;;11.68;100.00;100800.13;5044178;28;20028;-72
2021/11/13 10:46:23;;;;;;;4.70;1.92;;;;;;;11.70;100.00;100797.88;5063863;28;20031;-72
2021/11/13 10:48:51;;;;;;;4.10;1.67;;;;;;;11.73;100.00;100802.00;5078379;28;20506;-73
2021/11/13 10:51:24;;;;;;;6.07;1.70;;;;;;;11.75;100.00;100789.47;5043586;28;20020;-73
2021/11/13 10:53:50;;;;;;;;;;;;;;;11.76;100.00;100793.91;5078904;28;20445;-73
2021/11/13 10:56:20;;;;;;;5.70;1.52;;;;;;;11.79;100.00;100798.88;5078177;28;19912;-72
2021/11/13 10:58:58;;;;;;;8.68;1.38;;;;;;;11.82;100.00;100800.25;5074518;28;20027;-73
2021/11/13 11:01:24;;;;;;;9.88;1.95;;;;;;;11.80;100.00;100796.94;5093200;28;20458;-73
2021/11/13 11:03:51;;;;;;;6.22;2.20;;;;;;;11.80;100.00;100789.41;5095930;28;20056;-73
2021/11/13 11:06:30;;;;;;;12.35;3.03;;;;;;;11.79;100.00;100796.09;5091693;28;20024;-73
2021/11/13 11:08:55;;;;;;;5.35;2.08;;;;;;;11.79;100.00;100798.88;5062842;28;20031;-73
2021/11/13 11:11:35;;;;;;;7.25;1.73;;;;;;;11.78;100.00;100793.59;5071417;28;20028;-73
2021/11/13 11:14:04;;;;;;;6.78;2.70;;;;;;;11.77;100.00;100798.34;5042097;28;20074;-77
2021/11/13 11:16:37;;;;;;;8.40;2.30;;;;;;;11.77;100.00;100790.00;5077458;28;20381;-72